createdAt,value
2019-04-29T00:00:16.409Z,102086.82
2019-04-29T00:00:48.613Z,102082.77
2019-04-29T00:01:15.827Z,102079.11
2019-04-29T00:01:42.173Z,102086.75
2019-04-29T00:02:08.424Z,102083.64
2019-04-29T00:02:34.788Z,102079.11
2019-04-29T00:02:59.399Z,102081.82
2019-04-29T00:03:24.019Z,102085.88
2019-04-29T00:03:48.629Z,102086.82
2019-04-29T00:04:14.079Z,102082.77
2019-04-29T00:04:38.685Z,102080.06
2019-04-29T00:05:03.468Z,102087.60
2019-04-29T00:05:28.135Z,102086.35
2019-04-29T00:05:52.743Z,102089.45
2019-04-29T00:06:17.407Z,102093.17
2019-04-29T00:06:42.018Z,102085.47
2019-04-29T00:07:06.771Z,102087.23
2019-04-29T00:07:31.408Z,102088.58
2019-04-29T00:07:56.139Z,102087.30
2019-04-29T00:08:20.749Z,102089.94
2019-04-29T00:08:45.377Z,102086.35
2019-04-29T00:09:13.463Z,102089.94
2019-04-29T00:09:38.092Z,102084.12
2019-04-29T00:10:04.043Z,102087.70
2019-04-29T00:10:28.855Z,102089.53
2019-04-29T00:10:53.475Z,102083.23
2019-04-29T00:11:18.090Z,102085.95
2019-04-29T00:11:42.773Z,102083.23
2019-04-29T00:12:07.411Z,102087.30
2019-04-29T00:12:32.197Z,102087.30
2019-04-29T00:12:56.854Z,102084.12
2019-04-29T00:13:21.912Z,102088.65
2019-04-29T00:13:46.888Z,102085.47
2019-04-29T00:14:11.535Z,102087.77
2019-04-29T00:14:36.422Z,102082.77
2019-04-29T00:15:02.677Z,102087.36
2019-04-29T00:15:34.747Z,102093.17
2019-04-29T00:16:01.202Z,102091.83
2019-04-29T00:16:27.467Z,102091.42
2019-04-29T00:16:53.745Z,102095.88
2019-04-29T00:17:23.029Z,102094.13
2019-04-29T00:17:49.275Z,102096.45
2019-04-29T00:18:15.655Z,102095.10
2019-04-29T00:18:54.201Z,102091.99
2019-04-29T00:19:23.187Z,102099.66
2019-04-29T00:19:52.480Z,102096.95
2019-04-29T00:20:24.766Z,102097.44
2019-04-29T00:20:50.887Z,102097.53
2019-04-29T00:21:15.811Z,102097.13
2019-04-29T00:21:40.822Z,102097.13
2019-04-29T00:22:05.481Z,102094.42
2019-04-29T00:22:30.089Z,102094.02
2019-04-29T00:22:54.753Z,102100.77
2019-04-29T00:23:19.425Z,102098.55
2019-04-29T00:23:44.047Z,102100.77
2019-04-29T00:24:08.755Z,102099.99
2019-04-29T00:24:33.383Z,102099.11
2019-04-29T00:24:58.023Z,102099.59
2019-04-29T00:25:22.651Z,102097.29
2019-04-29T00:25:47.298Z,102096.41
2019-04-29T00:26:11.973Z,102095.94
2019-04-29T00:26:36.663Z,102096.41
2019-04-29T00:27:01.278Z,102101.34
2019-04-29T00:27:25.910Z,102108.89
2019-04-29T00:27:50.540Z,102098.17
2019-04-29T00:28:15.134Z,102095.84
2019-04-29T00:28:39.754Z,102097.29
2019-04-29T00:29:04.456Z,102093.64
2019-04-29T00:29:29.073Z,102065.62
2019-04-29T00:29:53.727Z,102097.19
2019-04-29T00:30:19.976Z,102093.13
2019-04-29T00:30:45.596Z,102094.48
2019-04-29T00:31:10.208Z,102100.40
2019-04-29T00:31:34.932Z,102100.77
2019-04-29T00:31:59.657Z,102102.13
2019-04-29T00:32:24.270Z,102091.41
2019-04-29T00:32:48.914Z,102099.05
2019-04-29T00:33:14.110Z,102099.89
2019-04-29T00:33:38.724Z,102099.89
2019-04-29T00:34:03.352Z,102102.59
2019-04-29T00:34:29.549Z,102099.05
2019-04-29T00:34:54.163Z,102099.89
2019-04-29T00:35:18.806Z,102099.89
2019-04-29T00:35:43.579Z,102099.89
2019-04-29T00:36:08.214Z,102094.11
2019-04-29T00:36:40.161Z,102104.83
2019-04-29T00:37:18.552Z,102100.40
2019-04-29T00:37:47.579Z,102097.70
2019-04-29T00:38:26.156Z,102102.70
2019-04-29T00:38:55.137Z,102098.23
2019-04-29T00:39:37.899Z,102100.06
2019-04-29T00:40:07.394Z,102099.18
2019-04-29T00:40:33.649Z,102100.16
2019-04-29T00:41:05.941Z,102102.52
2019-04-29T00:41:32.253Z,102103.97
2019-04-29T00:41:58.543Z,102102.21
2019-04-29T00:42:27.412Z,102104.91
2019-04-29T00:42:59.563Z,102105.39
2019-04-29T00:43:25.830Z,102105.86
2019-04-29T00:43:52.077Z,102103.63
2019-04-29T00:44:17.986Z,102105.45
2019-04-29T00:44:42.617Z,102101.02
2019-04-29T00:45:07.338Z,102106.42
2019-04-29T00:45:31.970Z,102106.80
2019-04-29T00:45:56.637Z,102107.78
2019-04-29T00:46:21.330Z,102107.78
2019-04-29T00:46:46.303Z,102107.38
2019-04-29T00:47:10.955Z,102110.48
2019-04-29T00:47:35.599Z,102113.19
2019-04-29T00:48:00.208Z,102112.21
2019-04-29T00:48:24.847Z,102107.78
2019-04-29T00:48:49.467Z,102107.27
2019-04-29T00:49:14.130Z,102112.69
2019-04-29T00:49:38.745Z,102106.80
2019-04-29T00:50:04.255Z,102107.68
2019-04-29T00:50:28.895Z,102109.51
2019-04-29T00:50:53.494Z,102104.09
2019-04-29T00:51:18.151Z,102110.39
2019-04-29T00:51:42.762Z,102109.51
2019-04-29T00:52:07.417Z,102115.32
2019-04-29T00:52:32.053Z,102117.14
2019-04-29T00:52:56.696Z,102110.86
2019-04-29T00:53:21.318Z,102114.84
2019-04-29T00:53:46.376Z,102119.78
2019-04-29T00:54:12.687Z,102113.97
2019-04-29T00:54:47.609Z,102114.78
2019-04-29T00:55:17.205Z,102110.32
2019-04-29T00:55:41.774Z,102114.78
2019-04-29T00:56:06.489Z,102111.20
2019-04-29T00:56:31.122Z,102113.44
2019-04-29T00:56:55.761Z,102115.73
2019-04-29T00:57:20.368Z,102116.67
2019-04-29T00:57:45.039Z,102114.91
2019-04-29T00:58:09.699Z,102110.48
2019-04-29T00:58:34.310Z,102114.03
2019-04-29T00:58:58.960Z,102115.89
2019-04-29T00:59:23.665Z,102114.91
2019-04-29T00:59:48.298Z,102121.20
2019-04-29T01:00:14.680Z,102125.36
2019-04-29T01:00:41.081Z,102120.33
2019-04-29T01:01:08.509Z,102115.80
2019-04-29T01:01:33.134Z,102117.24
2019-04-29T01:01:57.740Z,102115.48
2019-04-29T01:02:22.501Z,102118.59
2019-04-29T01:02:47.167Z,102121.30
2019-04-29T01:03:11.799Z,102119.44
2019-04-29T01:03:36.549Z,102121.30
2019-04-29T01:04:01.170Z,102122.14
2019-04-29T01:04:25.777Z,102118.19
2019-04-29T01:04:50.391Z,102120.89
2019-04-29T01:05:15.040Z,102121.30
2019-04-29T01:05:39.657Z,102118.59
2019-04-29T01:06:04.615Z,102115.89
2019-04-29T01:06:29.266Z,102118.59
2019-04-29T01:06:53.891Z,102119.95
2019-04-29T01:07:18.518Z,102115.89
2019-04-29T01:07:43.313Z,102119.95
2019-04-29T01:08:07.927Z,102121.30
2019-04-29T01:08:32.557Z,102122.65
2019-04-29T01:08:57.976Z,102115.89
2019-04-29T01:09:22.852Z,102119.07
2019-04-29T01:09:47.660Z,102122.65
2019-04-29T01:10:12.860Z,102122.65
2019-04-29T01:10:37.464Z,102121.30
2019-04-29T01:11:02.094Z,102126.30
2019-04-29T01:11:26.904Z,102121.36
2019-04-29T01:11:51.518Z,102117.38
2019-04-29T01:12:16.134Z,102121.84
2019-04-29T01:12:40.766Z,102124.54
2019-04-29T01:13:05.415Z,102121.84
2019-04-29T01:13:30.070Z,102123.19
2019-04-29T01:13:55.400Z,102125.89
2019-04-29T01:14:20.091Z,102125.89
2019-04-29T01:14:44.702Z,102124.95
2019-04-29T01:15:09.710Z,102120.48
2019-04-29T01:15:34.333Z,102125.42
2019-04-29T01:15:58.945Z,102123.19
2019-04-29T01:16:24.325Z,102121.42
2019-04-29T01:16:49.382Z,102121.84
2019-04-29T01:17:14.286Z,102124.13
2019-04-29T01:17:38.909Z,102124.13
2019-04-29T01:18:03.570Z,102121.05
2019-04-29T01:18:28.197Z,102121.93
2019-04-29T01:18:52.854Z,102123.19
2019-04-29T01:19:17.468Z,102123.66
2019-04-29T01:19:42.122Z,102126.36
2019-04-29T01:20:07.516Z,102122.78
2019-04-29T01:20:32.147Z,102128.69
2019-04-29T01:20:56.782Z,102121.42
2019-04-29T01:21:21.431Z,102123.28
2019-04-29T01:21:46.039Z,102121.42
2019-04-29T01:22:10.672Z,102124.64
2019-04-29T01:22:35.276Z,102117.00
2019-04-29T01:22:59.881Z,102121.52
2019-04-29T01:23:24.548Z,102125.11
2019-04-29T01:23:49.178Z,102124.64
2019-04-29T01:24:15.208Z,102127.41
2019-04-29T01:24:39.873Z,102120.23
2019-04-29T01:25:05.716Z,102123.34
2019-04-29T01:25:30.347Z,102129.16
2019-04-29T01:25:56.608Z,102122.47
2019-04-29T01:26:28.453Z,102123.34
2019-04-29T01:26:55.544Z,102123.81
2019-04-29T01:27:21.846Z,102125.17
2019-04-29T01:27:50.555Z,102127.41
2019-04-29T01:28:22.745Z,102121.59
2019-04-29T01:28:49.503Z,102127.47
2019-04-29T01:29:18.548Z,102125.33
2019-04-29T01:29:43.185Z,102129.39
2019-04-29T01:30:08.127Z,102129.86
2019-04-29T01:30:39.003Z,102132.16
2019-04-29T01:31:13.062Z,102129.05
2019-04-29T01:31:37.766Z,102128.09
2019-04-29T01:32:02.390Z,102126.34
2019-04-29T01:32:27.005Z,102130.91
2019-04-29T01:32:51.647Z,102131.37
2019-04-29T01:33:16.259Z,102130.96
2019-04-29T01:33:40.868Z,102126.44
2019-04-29T01:34:09.947Z,102128.27
2019-04-29T01:34:48.163Z,102133.67
2019-04-29T01:35:12.780Z,102125.55
2019-04-29T01:35:37.398Z,102126.50
2019-04-29T01:36:06.449Z,102124.27
2019-04-29T01:36:38.663Z,102124.73
2019-04-29T01:37:03.353Z,102128.80
2019-04-29T01:37:29.645Z,102118.96
2019-04-29T01:37:54.528Z,102125.72
2019-04-29T01:38:19.370Z,102129.77
2019-04-29T01:38:44.172Z,102125.30
2019-04-29T01:39:09.522Z,102125.72
2019-04-29T01:39:39.973Z,102128.42
2019-04-29T01:40:25.277Z,102130.66
2019-04-29T01:40:55.468Z,102129.36
2019-04-29T01:41:27.655Z,102125.72
2019-04-29T01:41:53.936Z,102129.36
2019-04-29T01:42:22.656Z,102123.08
2019-04-29T01:42:47.323Z,102122.61
2019-04-29T01:43:11.926Z,102118.14
2019-04-29T01:43:54.815Z,102120.94
2019-04-29T01:44:21.355Z,102121.41
2019-04-29T01:44:46.008Z,102123.70
2019-04-29T01:45:10.741Z,102125.06
2019-04-29T01:45:35.352Z,102119.66
2019-04-29T01:45:59.982Z,102126.41
2019-04-29T01:46:24.612Z,102120.12
2019-04-29T01:46:49.295Z,102123.30
2019-04-29T01:47:14.344Z,102120.59
2019-04-29T01:47:38.960Z,102124.17
2019-04-29T01:48:03.645Z,102129.58
2019-04-29T01:48:28.291Z,102121.00
2019-04-29T01:48:53.095Z,102122.36
2019-04-29T01:49:17.736Z,102123.64
2019-04-29T01:49:42.374Z,102122.36
2019-04-29T01:50:07.525Z,102118.71
2019-04-29T01:50:32.158Z,102124.49
2019-04-29T01:50:56.784Z,102120.06
2019-04-29T01:51:21.400Z,102122.30
2019-04-29T01:51:46.054Z,102120.44
2019-04-29T01:52:10.660Z,102121.73
2019-04-29T01:52:35.327Z,102118.55
2019-04-29T01:52:59.992Z,102124.42
2019-04-29T01:53:24.613Z,102123.55
2019-04-29T01:53:49.276Z,102124.90
2019-04-29T01:54:14.421Z,102123.08
2019-04-29T01:54:39.051Z,102123.55
2019-04-29T01:55:03.985Z,102121.25
2019-04-29T01:55:28.688Z,102121.73
2019-04-29T01:55:53.489Z,102124.02
2019-04-29T01:56:18.097Z,102126.25
2019-04-29T01:56:42.741Z,102124.37
2019-04-29T01:57:07.360Z,102126.66
2019-04-29T01:57:31.992Z,102122.20
2019-04-29T01:57:56.613Z,102132.06
2019-04-29T01:58:21.257Z,102127.61
2019-04-29T01:58:46.452Z,102126.66
2019-04-29T01:59:11.679Z,102124.84
2019-04-29T01:59:36.323Z,102129.36
2019-04-29T02:00:00.921Z,102135.64
2019-04-29T02:00:25.535Z,102134.36
2019-04-29T02:00:50.308Z,102133.89
2019-04-29T02:01:14.926Z,102135.71
2019-04-29T02:01:39.554Z,102131.19
2019-04-29T02:02:04.364Z,102135.71
2019-04-29T02:02:29.003Z,102144.64
2019-04-29T02:02:53.659Z,102137.47
2019-04-29T02:03:18.284Z,102138.41
2019-04-29T02:03:42.969Z,102134.36
2019-04-29T02:04:07.601Z,102141.12
2019-04-29T02:04:32.245Z,102139.30
2019-04-29T02:04:56.815Z,102135.71
2019-04-29T02:05:21.455Z,102134.83
2019-04-29T02:05:46.091Z,102142.00
2019-04-29T02:06:10.738Z,102137.47
2019-04-29T02:06:35.391Z,102136.19
2019-04-29T02:07:00.001Z,102133.95
2019-04-29T02:07:24.642Z,102140.71
2019-04-29T02:07:49.565Z,102140.71
2019-04-29T02:08:14.589Z,102140.71
2019-04-29T02:08:39.271Z,102136.28
2019-04-29T02:09:05.483Z,102141.12
2019-04-29T02:10:07.600Z,102132.84
2019-04-29T02:10:33.815Z,102137.06
2019-04-29T02:10:58.413Z,102138.51
2019-04-29T02:11:23.081Z,102131.75
2019-04-29T02:11:47.730Z,102131.75
2019-04-29T02:12:12.343Z,102133.48
2019-04-29T02:12:36.975Z,102132.22
2019-04-29T02:13:01.594Z,102131.75
2019-04-29T02:13:26.236Z,102136.28
2019-04-29T02:13:50.861Z,102133.10
2019-04-29T02:14:15.467Z,102135.81
2019-04-29T02:14:40.091Z,102133.01
2019-04-29T02:15:06.531Z,102137.06
2019-04-29T02:15:31.139Z,102135.30
2019-04-29T02:15:55.758Z,102133.95
2019-04-29T02:16:20.407Z,102133.95
2019-04-29T02:16:45.139Z,102138.41
2019-04-29T02:17:09.744Z,102137.22
2019-04-29T02:17:34.361Z,102134.05
2019-04-29T02:17:58.984Z,102134.93
2019-04-29T02:18:23.609Z,102130.47
2019-04-29T02:18:48.220Z,102138.98
2019-04-29T02:19:12.869Z,102136.34
2019-04-29T02:19:37.490Z,102137.22
2019-04-29T02:20:02.139Z,102130.53
2019-04-29T02:20:27.425Z,102131.81
2019-04-29T02:20:52.056Z,102127.29
2019-04-29T02:21:16.671Z,102133.17
2019-04-29T02:21:42.922Z,102130.94
2019-04-29T02:22:15.449Z,102134.05
2019-04-29T02:22:47.305Z,102136.34
2019-04-29T02:23:13.587Z,102135.87
2019-04-29T02:23:46.463Z,102130.05
2019-04-29T02:24:15.389Z,102130.16
2019-04-29T02:24:41.655Z,102131.03
2019-04-29T02:25:07.905Z,102128.39
2019-04-29T02:25:34.155Z,102124.87
2019-04-29T02:25:58.767Z,102126.73
2019-04-29T02:26:23.426Z,102124.97
2019-04-29T02:26:48.108Z,102123.14
2019-04-29T02:27:12.742Z,102131.31
2019-04-29T02:27:37.362Z,102124.55
2019-04-29T02:28:02.004Z,102129.96
2019-04-29T02:28:26.608Z,102124.63
2019-04-29T02:28:51.225Z,102120.09
2019-04-29T02:29:15.841Z,102122.80
2019-04-29T02:29:40.472Z,102122.33
2019-04-29T02:30:08.494Z,102120.50
2019-04-29T02:30:41.147Z,102119.72
2019-04-29T02:31:23.788Z,102118.74
2019-04-29T02:31:48.401Z,102118.27
2019-04-29T02:32:13.028Z,102118.74
2019-04-29T02:32:37.679Z,102115.67
2019-04-29T02:33:02.687Z,102120.09
2019-04-29T02:33:27.972Z,102120.19
2019-04-29T02:33:52.601Z,102120.19
2019-04-29T02:34:17.232Z,102117.55
2019-04-29T02:34:41.844Z,102121.13
2019-04-29T02:35:06.495Z,102119.31
2019-04-29T02:35:31.203Z,102120.25
2019-04-29T02:35:55.919Z,102118.44
2019-04-29T02:36:20.550Z,102117.08
2019-04-29T02:36:45.178Z,102123.36
2019-04-29T02:37:11.385Z,102120.66
2019-04-29T02:37:37.677Z,102123.36
2019-04-29T02:38:02.569Z,102120.25
2019-04-29T02:38:31.961Z,102118.44
2019-04-29T02:39:00.709Z,102118.44
2019-04-29T02:39:27.015Z,102123.84
2019-04-29T02:39:53.288Z,102119.78
2019-04-29T02:40:28.245Z,102117.55
2019-04-29T02:41:12.882Z,102118.90
2019-04-29T02:41:47.908Z,102116.20
2019-04-29T02:42:32.398Z,102115.80
2019-04-29T02:43:04.291Z,102122.17
2019-04-29T02:43:40.041Z,102117.23
2019-04-29T02:44:06.340Z,102113.72
2019-04-29T02:44:30.953Z,102115.54
2019-04-29T02:44:56.261Z,102112.05
2019-04-29T02:45:22.523Z,102116.11
2019-04-29T02:45:47.176Z,102113.47
2019-04-29T02:46:11.800Z,102118.87
2019-04-29T02:46:36.433Z,102118.39
2019-04-29T02:47:01.057Z,102113.56
2019-04-29T02:47:25.692Z,102117.98
2019-04-29T02:47:50.435Z,102116.64
2019-04-29T02:48:15.085Z,102115.38
2019-04-29T02:48:39.730Z,102112.20
2019-04-29T02:49:04.351Z,102113.94
2019-04-29T02:49:29.161Z,102119.34
2019-04-29T02:49:53.751Z,102117.98
2019-04-29T02:50:18.777Z,102118.39
2019-04-29T02:50:43.383Z,102113.47
2019-04-29T02:51:08.003Z,102117.93
2019-04-29T02:51:46.436Z,102118.81
2019-04-29T02:52:11.085Z,102119.69
2019-04-29T02:52:35.702Z,102116.98
2019-04-29T02:53:00.339Z,102118.81
2019-04-29T02:53:24.991Z,102115.63
2019-04-29T02:53:49.606Z,102121.92
2019-04-29T02:54:14.709Z,102121.98
2019-04-29T02:54:39.344Z,102119.28
2019-04-29T02:55:05.210Z,102122.86
2019-04-29T02:55:31.485Z,102120.57
2019-04-29T02:55:57.679Z,102121.51
2019-04-29T02:56:22.327Z,102123.27
2019-04-29T02:56:48.571Z,102126.44
2019-04-29T02:57:31.493Z,102125.09
2019-04-29T02:58:06.537Z,102124.21
2019-04-29T02:58:35.615Z,102121.10
2019-04-29T02:59:01.882Z,102124.21
2019-04-29T02:59:34.149Z,102125.56
2019-04-29T03:00:12.611Z,102124.74
2019-04-29T03:00:47.990Z,102128.42
2019-04-29T03:01:16.976Z,102131.13
2019-04-29T03:01:52.288Z,102126.66
2019-04-29T03:02:18.569Z,102124.42
2019-04-29T03:03:05.053Z,102125.84
2019-04-29T03:03:31.280Z,102118.23
2019-04-29T03:03:57.583Z,102129.52
2019-04-29T03:04:23.840Z,102124.17
2019-04-29T03:04:52.705Z,102121.00
2019-04-29T03:05:21.656Z,102129.17
2019-04-29T03:05:47.967Z,102121.95
2019-04-29T03:06:12.589Z,102121.53
2019-04-29T03:06:37.387Z,102126.94
2019-04-29T03:07:02.007Z,102122.51
2019-04-29T03:07:26.622Z,102121.63
2019-04-29T03:07:51.249Z,102124.74
2019-04-29T03:08:15.875Z,102125.59
2019-04-29T03:08:40.509Z,102123.86
2019-04-29T03:09:06.721Z,102120.19
2019-04-29T03:09:32.952Z,102123.30
2019-04-29T03:09:57.598Z,102126.00
2019-04-29T03:10:22.226Z,102123.30
2019-04-29T03:10:46.876Z,102124.64
2019-04-29T03:11:11.503Z,102123.30
2019-04-29T03:11:36.162Z,102116.95
2019-04-29T03:12:01.941Z,102125.47
2019-04-29T03:12:26.769Z,102122.30
2019-04-29T03:12:51.401Z,102120.94
2019-04-29T03:13:16.036Z,102120.44
2019-04-29T03:13:40.656Z,102116.01
2019-04-29T03:14:05.296Z,102117.73
2019-04-29T03:14:30.504Z,102115.54
2019-04-29T03:14:55.147Z,102119.09
2019-04-29T03:15:28.523Z,102118.14
2019-04-29T03:15:53.215Z,102120.84
2019-04-29T03:16:18.824Z,102119.50
2019-04-29T03:16:43.440Z,102120.84
2019-04-29T03:17:08.095Z,102114.97
2019-04-29T03:17:32.686Z,102118.14
2019-04-29T03:17:57.494Z,102120.38
2019-04-29T03:18:24.196Z,102123.96
2019-04-29T03:18:50.463Z,102121.25
2019-04-29T03:19:22.730Z,102118.55
2019-04-29T03:20:05.141Z,102123.96
2019-04-29T03:20:49.611Z,102120.78
2019-04-29T03:21:26.493Z,102122.61
2019-04-29T03:21:52.775Z,102121.25
2019-04-29T03:22:17.406Z,102120.94
2019-04-29T03:22:43.697Z,102120.06
2019-04-29T03:23:09.972Z,102125.05
2019-04-29T03:23:34.604Z,102119.24
2019-04-29T03:23:59.209Z,102120.19
2019-04-29T03:24:23.844Z,102118.45
2019-04-29T03:24:48.436Z,102122.04
2019-04-29T03:25:13.114Z,102124.33
2019-04-29T03:25:37.714Z,102116.70
2019-04-29T03:26:02.325Z,102122.10
2019-04-29T03:26:26.943Z,102120.75
2019-04-29T03:26:51.560Z,102118.93
2019-04-29T03:27:16.222Z,102121.16
2019-04-29T03:27:40.847Z,102127.44
2019-04-29T03:28:05.540Z,102124.23
2019-04-29T03:28:30.137Z,102122.51
2019-04-29T03:28:54.780Z,102116.12
2019-04-29T03:29:22.087Z,102120.19
2019-04-29T03:29:46.711Z,102122.88
2019-04-29T03:30:11.383Z,102120.59
2019-04-29T03:30:36.085Z,102117.01
2019-04-29T03:31:00.758Z,102124.17
2019-04-29T03:31:25.351Z,102120.12
2019-04-29T03:31:51.314Z,102117.42
2019-04-29T03:32:15.942Z,102121.47
2019-04-29T03:32:40.607Z,102119.66
2019-04-29T03:33:05.296Z,102116.95
2019-04-29T03:33:29.978Z,102117.42
2019-04-29T03:33:54.601Z,102115.19
2019-04-29T03:34:19.225Z,102121.00
2019-04-29T03:34:43.860Z,102121.00
2019-04-29T03:35:08.462Z,102118.30
2019-04-29T03:35:33.085Z,102114.66
2019-04-29T03:35:57.723Z,102118.71
2019-04-29T03:36:22.369Z,102117.83
2019-04-29T03:36:47.009Z,102115.59
2019-04-29T03:37:11.632Z,102117.73
2019-04-29T03:37:36.247Z,102118.23
2019-04-29T03:38:00.906Z,102114.66
2019-04-29T03:38:25.499Z,102112.42
2019-04-29T03:38:50.128Z,102112.33
2019-04-29T03:39:14.997Z,102113.31
2019-04-29T03:39:39.691Z,102111.48
2019-04-29T03:40:04.875Z,102110.14
2019-04-29T03:40:29.497Z,102113.31
2019-04-29T03:40:54.155Z,102114.66
2019-04-29T03:41:18.797Z,102119.09
2019-04-29T03:41:43.691Z,102116.38
2019-04-29T03:42:08.354Z,102122.67
2019-04-29T03:42:32.973Z,102122.67
2019-04-29T03:42:57.626Z,102125.47
2019-04-29T03:43:22.341Z,102120.44
2019-04-29T03:43:47.000Z,102120.44
2019-04-29T03:44:11.641Z,102120.44
2019-04-29T03:44:36.268Z,102116.38
2019-04-29T03:45:00.905Z,102126.25
2019-04-29T03:45:25.521Z,102124.02
2019-04-29T03:45:50.643Z,102124.49
2019-04-29T03:46:15.753Z,102128.95
2019-04-29T03:46:40.423Z,102125.84
2019-04-29T03:47:05.028Z,102126.34
2019-04-29T03:47:29.714Z,102124.11
2019-04-29T03:47:54.373Z,102119.19
2019-04-29T03:48:18.982Z,102124.11
2019-04-29T03:48:43.611Z,102127.19
2019-04-29T03:49:08.232Z,102131.24
2019-04-29T03:49:33.020Z,102126.72
2019-04-29T03:49:57.637Z,102129.05
2019-04-29T03:50:22.247Z,102127.70
2019-04-29T03:50:46.899Z,102131.24
2019-04-29T03:51:11.500Z,102135.30
2019-04-29T03:51:36.309Z,102129.05
2019-04-29T03:52:00.969Z,102128.17
2019-04-29T03:52:25.589Z,102132.59
2019-04-29T03:52:50.213Z,102124.11
2019-04-29T03:53:15.018Z,102134.83
2019-04-29T03:53:39.658Z,102135.30
2019-04-29T03:54:04.252Z,102133.47
2019-04-29T03:54:28.888Z,102137.53
2019-04-29T03:54:54.046Z,102136.64
2019-04-29T03:55:37.565Z,102133.00
2019-04-29T03:55:45.061Z,102137.47
2019-04-29T03:56:09.689Z,102134.36
2019-04-29T03:56:34.292Z,102138.41
2019-04-29T03:56:58.929Z,102142.05
2019-04-29T03:57:23.606Z,102135.30
2019-04-29T03:57:48.233Z,102139.34
2019-04-29T03:58:12.834Z,102136.27
2019-04-29T03:58:37.451Z,102142.05
2019-04-29T03:59:02.094Z,102142.55
2019-04-29T03:59:26.712Z,102136.27
2019-04-29T03:59:51.335Z,102128.64
2019-04-29T04:00:17.269Z,102132.22
2019-04-29T04:00:44.320Z,102134.45
2019-04-29T04:01:15.874Z,102140.33
2019-04-29T04:01:58.820Z,102138.97
2019-04-29T04:02:25.122Z,102136.27
2019-04-29T04:03:07.307Z,102138.97
2019-04-29T04:03:33.560Z,102134.51
2019-04-29T04:04:08.660Z,102142.67
2019-04-29T04:04:51.338Z,102144.03
2019-04-29T04:05:32.994Z,102136.48
2019-04-29T04:06:02.087Z,102146.41
2019-04-29T04:06:28.388Z,102139.41
2019-04-29T04:06:57.709Z,102140.34
2019-04-29T04:07:27.003Z,102146.69
2019-04-29T04:07:53.256Z,102144.95
2019-04-29T04:08:19.540Z,102145.90
2019-04-29T04:09:04.400Z,102144.61
2019-04-29T04:09:22.947Z,102145.48
2019-04-29T04:09:47.569Z,102146.42
2019-04-29T04:10:12.194Z,102143.73
2019-04-29T04:10:36.835Z,102145.08
2019-04-29T04:11:01.435Z,102137.48
2019-04-29T04:11:26.094Z,102139.67
2019-04-29T04:11:50.721Z,102141.53
2019-04-29T04:12:15.353Z,102146.42
2019-04-29T04:12:40.067Z,102143.73
2019-04-29T04:13:04.695Z,102139.67
2019-04-29T04:13:29.341Z,102140.17
2019-04-29T04:13:53.965Z,102136.50
2019-04-29T04:14:18.591Z,102140.55
2019-04-29T04:14:43.206Z,102140.09
2019-04-29T04:15:07.824Z,102142.31
2019-04-29T04:15:32.505Z,102143.20
2019-04-29T04:15:57.137Z,102142.73
2019-04-29T04:16:23.439Z,102139.56
2019-04-29T04:16:49.709Z,102146.69
2019-04-29T04:17:20.698Z,102135.03
2019-04-29T04:17:49.321Z,102140.44
2019-04-29T04:18:21.890Z,102140.34
2019-04-29T04:18:46.519Z,102137.73
2019-04-29T04:19:11.170Z,102140.50
2019-04-29T04:19:35.838Z,102140.91
2019-04-29T04:20:00.553Z,102139.14
2019-04-29T04:20:25.310Z,102140.44
2019-04-29T04:20:50.091Z,102140.91
2019-04-29T04:21:14.687Z,102140.50
2019-04-29T04:21:39.338Z,102139.14
2019-04-29T04:22:04.013Z,102135.97
2019-04-29T04:22:30.279Z,102135.97
2019-04-29T04:22:54.931Z,102134.22
2019-04-29T04:23:19.546Z,102135.97
2019-04-29T04:23:44.152Z,102139.14
2019-04-29T04:24:08.772Z,102136.45
2019-04-29T04:24:33.383Z,102133.74
2019-04-29T04:24:58.015Z,102137.33
2019-04-29T04:25:22.629Z,102136.03
2019-04-29T04:25:47.279Z,102135.50
2019-04-29T04:26:11.935Z,102139.56
2019-04-29T04:26:36.540Z,102139.14
2019-04-29T04:27:01.199Z,102135.09
2019-04-29T04:27:25.827Z,102131.92
2019-04-29T04:27:50.465Z,102134.16
2019-04-29T04:28:15.105Z,102135.88
2019-04-29T04:28:39.755Z,102137.73
2019-04-29T04:29:04.484Z,102133.27
2019-04-29T04:29:29.107Z,102133.27
2019-04-29T04:29:53.769Z,102137.73
2019-04-29T04:30:18.591Z,102142.16
2019-04-29T04:30:43.277Z,102141.28
2019-04-29T04:31:08.025Z,102136.38
2019-04-29T04:31:32.681Z,102135.50
2019-04-29T04:31:57.312Z,102134.53
2019-04-29T04:32:22.214Z,102138.58
2019-04-29T04:32:46.830Z,102135.03
2019-04-29T04:33:11.519Z,102133.69
2019-04-29T04:33:36.124Z,102135.03
2019-04-29T04:34:00.743Z,102136.86
2019-04-29T04:34:25.469Z,102133.18
2019-04-29T04:34:50.098Z,102133.69
2019-04-29T04:35:14.729Z,102136.45
2019-04-29T04:35:39.363Z,102131.52
2019-04-29T04:36:04.006Z,102138.73
2019-04-29T04:36:28.729Z,102135.63
2019-04-29T04:36:53.346Z,102138.73
2019-04-29T04:37:17.998Z,102142.37
2019-04-29T04:37:42.611Z,102137.95
2019-04-29T04:38:07.262Z,102142.47
2019-04-29T04:38:31.873Z,102139.80
2019-04-29T04:38:56.543Z,102139.33
2019-04-29T04:39:21.152Z,102135.84
2019-04-29T04:39:45.777Z,102137.66
2019-04-29T04:40:12.106Z,102139.01
2019-04-29T04:41:09.179Z,102134.84
2019-04-29T04:41:33.791Z,102136.45
2019-04-29T04:41:58.695Z,102135.58
2019-04-29T04:42:23.331Z,102143.21
2019-04-29T04:42:47.944Z,102138.34
2019-04-29T04:43:12.598Z,102142.86
2019-04-29T04:43:37.204Z,102142.86
2019-04-29T04:44:01.917Z,102137.93
2019-04-29T04:44:28.167Z,102140.25
2019-04-29T04:44:52.811Z,102138.02
2019-04-29T04:45:17.423Z,102141.19
2019-04-29T04:45:42.081Z,102141.19
2019-04-29T04:46:06.711Z,102143.06
2019-04-29T04:46:31.347Z,102141.72
2019-04-29T04:46:56.057Z,102141.34
2019-04-29T04:47:20.683Z,102139.11
2019-04-29T04:47:45.321Z,102141.34
2019-04-29T04:48:10.017Z,102141.34
2019-04-29T04:48:34.676Z,102144.89
2019-04-29T04:48:59.297Z,102143.06
2019-04-29T04:49:23.949Z,102149.44
2019-04-29T04:49:48.572Z,102143.53
2019-04-29T04:50:14.155Z,102125.14
2019-04-29T04:50:38.810Z,102145.04
2019-04-29T04:51:03.433Z,102150.84
2019-04-29T04:51:28.072Z,102144.52
2019-04-29T04:51:52.696Z,102151.73
2019-04-29T04:52:17.339Z,102147.68
2019-04-29T04:52:41.980Z,102149.97
2019-04-29T04:53:06.585Z,102152.67
2019-04-29T04:53:31.204Z,102148.63
2019-04-29T04:53:55.819Z,102147.73
2019-04-29T04:54:20.517Z,102148.20
2019-04-29T04:54:46.939Z,102145.92
2019-04-29T04:55:11.655Z,102147.83
2019-04-29T04:55:37.884Z,102142.43
2019-04-29T04:56:02.537Z,102145.13
2019-04-29T04:56:27.137Z,102148.67
2019-04-29T04:56:51.770Z,102149.66
2019-04-29T04:57:16.473Z,102143.38
2019-04-29T04:57:41.473Z,102145.19